Terminal Aerodrome Forecast
Issued by NWS Detroit/Pontiac, MI

Home | Current Version | Previous Version | Text Only | Print | Product List | Glossary On
Versions: 1 2 3 4 5 6 7 8 9 10 11 12 13 14 15 16 17 18 19 20 21 22 23 24 25 26
430
FTUS43 KDTX 170528
TAFDTW
TAF
KDTW 170528Z 1706/1812 07007KT 2SM -SHRA BR OVC004
      TEMPO 1706/1708 4SM BR OVC008
     FM170800 09007KT 1SM RA BR OVC004
     FM171100 09005KT 1/2SM -SHRA FG VV002
     FM171600 22013G20KT 5SM BR OVC015
     FM180100 27013KT 5SM -SHRA BR OVC008=

USA.gov is the U.S. government's official web portal to all federal, state and local government web resources and services.